sensor_id;sensor_type;location;lat;lon;timestamp;P1;durP1;ratioP1;P2;durP2;ratioP2
11582;SDS011;34299;50.820;4.548;2024-03-06T00:00:02;5.43;;;4.10;;
11582;SDS011;34299;50.820;4.548;2024-03-06T00:02:29;4.63;;;3.77;;
11582;SDS011;34299;50.820;4.548;2024-03-06T00:04:56;4.13;;;3.57;;
11582;SDS011;34299;50.820;4.548;2024-03-06T00:07:24;5.13;;;3.80;;
11582;SDS011;34299;50.820;4.548;2024-03-06T00:09:51;4.77;;;3.93;;
11582;SDS011;34299;50.820;4.548;2024-03-06T00:12:19;5.60;;;4.23;;
11582;SDS011;34299;50.820;4.548;2024-03-06T00:14:47;5.57;;;3.97;;
11582;SDS011;34299;50.820;4.548;2024-03-06T00:17:14;5.10;;;3.80;;
11582;SDS011;34299;50.820;4.548;2024-03-06T00:19:41;4.70;;;4.03;;
11582;SDS011;34299;50.820;4.548;2024-03-06T00:22:09;4.37;;;3.97;;
11582;SDS011;34299;50.820;4.548;2024-03-06T00:24:36;5.83;;;3.60;;
11582;SDS011;34299;50.820;4.548;2024-03-06T00:27:03;4.13;;;3.43;;
11582;SDS011;34299;50.820;4.548;2024-03-06T00:29:31;5.63;;;3.97;;
11582;SDS011;34299;50.820;4.548;2024-03-06T00:31:59;4.77;;;3.90;;
11582;SDS011;34299;50.820;4.548;2024-03-06T00:34:26;4.03;;;3.30;;
11582;SDS011;34299;50.820;4.548;2024-03-06T00:36:53;4.03;;;3.53;;
11582;SDS011;34299;50.820;4.548;2024-03-06T00:39:20;5.37;;;3.43;;
11582;SDS011;34299;50.820;4.548;2024-03-06T00:41:47;4.27;;;3.57;;
11582;SDS011;34299;50.820;4.548;2024-03-06T00:44:14;8.17;;;4.07;;
11582;SDS011;34299;50.820;4.548;2024-03-06T00:46:42;5.87;;;4.00;;
11582;SDS011;34299;50.820;4.548;2024-03-06T00:49:10;4.83;;;3.67;;
11582;SDS011;34299;50.820;4.548;2024-03-06T00:51:37;4.63;;;3.77;;
11582;SDS011;34299;50.820;4.548;2024-03-06T00:54:04;6.83;;;3.90;;
11582;SDS011;34299;50.820;4.548;2024-03-06T00:56:30;5.30;;;4.27;;
11582;SDS011;34299;50.820;4.548;2024-03-06T00:58:57;4.70;;;4.03;;
11582;SDS011;34299;50.820;4.548;2024-03-06T01:01:24;3.57;;;3.13;;
11582;SDS011;34299;50.820;4.548;2024-03-06T01:03:53;6.50;;;3.90;;
11582;SDS011;34299;50.820;4.548;2024-03-06T01:06:21;4.37;;;3.80;;
11582;SDS011;34299;50.820;4.548;2024-03-06T01:08:48;6.60;;;3.97;;
11582;SDS011;34299;50.820;4.548;2024-03-06T01:11:16;4.07;;;3.43;;
11582;SDS011;34299;50.820;4.548;2024-03-06T01:13:44;5.67;;;4.30;;
11582;SDS011;34299;50.820;4.548;2024-03-06T01:16:10;4.80;;;3.63;;
11582;SDS011;34299;50.820;4.548;2024-03-06T01:18:37;6.83;;;4.37;;
11582;SDS011;34299;50.820;4.548;2024-03-06T01:21:04;5.20;;;4.13;;
11582;SDS011;34299;50.820;4.548;2024-03-06T01:23:33;4.70;;;3.57;;
11582;SDS011;34299;50.820;4.548;2024-03-06T01:25:59;4.37;;;3.87;;
11582;SDS011;34299;50.820;4.548;2024-03-06T01:28:26;4.43;;;3.80;;
11582;SDS011;34299;50.820;4.548;2024-03-06T01:30:53;5.13;;;4.43;;
11582;SDS011;34299;50.820;4.548;2024-03-06T01:33:20;4.90;;;4.40;;
11582;SDS011;34299;50.820;4.548;2024-03-06T01:35:47;4.73;;;4.10;;
11582;SDS011;34299;50.820;4.548;2024-03-06T01:38:14;6.00;;;3.90;;
11582;SDS011;34299;50.820;4.548;2024-03-06T01:40:44;4.87;;;3.33;;
11582;SDS011;34299;50.820;4.548;2024-03-06T01:43:18;4.70;;;3.53;;
11582;SDS011;34299;50.820;4.548;2024-03-06T01:45:47;6.37;;;3.80;;
11582;SDS011;34299;50.820;4.548;2024-03-06T01:48:14;6.37;;;4.10;;
11582;SDS011;34299;50.820;4.548;2024-03-06T01:50:42;5.30;;;4.00;;
11582;SDS011;34299;50.820;4.548;2024-03-06T01:53:09;6.10;;;4.80;;
11582;SDS011;34299;50.820;4.548;2024-03-06T01:55:36;5.90;;;4.07;;
11582;SDS011;34299;50.820;4.548;2024-03-06T01:58:05;7.13;;;5.10;;
11582;SDS011;34299;50.820;4.548;2024-03-06T02:00:32;5.17;;;4.13;;
11582;SDS011;34299;50.820;4.548;2024-03-06T02:03:00;5.83;;;3.97;;
11582;SDS011;34299;50.820;4.548;2024-03-06T02:05:27;6.83;;;4.63;;
11582;SDS011;34299;50.820;4.548;2024-03-06T02:07:57;5.50;;;4.23;;
11582;SDS011;34299;50.820;4.548;2024-03-06T02:10:24;8.00;;;5.13;;
11582;SDS011;34299;50.820;4.548;2024-03-06T02:12:52;8.87;;;5.17;;
11582;SDS011;34299;50.820;4.548;2024-03-06T02:15:21;9.30;;;4.93;;
11582;SDS011;34299;50.820;4.548;2024-03-06T02:17:48;7.90;;;5.17;;
11582;SDS011;34299;50.820;4.548;2024-03-06T02:20:22;5.80;;;4.17;;
11582;SDS011;34299;50.820;4.548;2024-03-06T02:22:50;5.87;;;4.50;;
11582;SDS011;34299;50.820;4.548;2024-03-06T02:25:17;5.37;;;4.33;;
11582;SDS011;34299;50.820;4.548;2024-03-06T02:27:45;7.13;;;4.40;;
11582;SDS011;34299;50.820;4.548;2024-03-06T02:30:13;7.60;;;5.40;;
11582;SDS011;34299;50.820;4.548;2024-03-06T02:32:40;7.17;;;5.07;;
11582;SDS011;34299;50.820;4.548;2024-03-06T02:35:09;7.63;;;5.07;;
11582;SDS011;34299;50.820;4.548;2024-03-06T02:37:38;6.93;;;5.20;;
11582;SDS011;34299;50.820;4.548;2024-03-06T02:40:06;6.40;;;4.93;;
11582;SDS011;34299;50.820;4.548;2024-03-06T02:42:35;7.83;;;5.37;;
11582;SDS011;34299;50.820;4.548;2024-03-06T02:45:04;6.63;;;4.63;;
11582;SDS011;34299;50.820;4.548;2024-03-06T02:47:32;7.47;;;4.93;;
11582;SDS011;34299;50.820;4.548;2024-03-06T02:49:59;8.50;;;5.27;;
11582;SDS011;34299;50.820;4.548;2024-03-06T02:52:26;6.73;;;5.33;;
11582;SDS011;34299;50.820;4.548;2024-03-06T02:54:54;7.13;;;4.53;;
11582;SDS011;34299;50.820;4.548;2024-03-06T02:57:21;8.33;;;5.13;;
11582;SDS011;34299;50.820;4.548;2024-03-06T02:59:48;7.47;;;5.57;;
11582;SDS011;34299;50.820;4.548;2024-03-06T03:02:16;5.50;;;4.13;;
11582;SDS011;34299;50.820;4.548;2024-03-06T03:04:43;5.80;;;4.27;;
11582;SDS011;34299;50.820;4.548;2024-03-06T03:07:10;7.10;;;4.40;;
11582;SDS011;34299;50.820;4.548;2024-03-06T03:09:37;6.67;;;4.73;;
11582;SDS011;34299;50.820;4.548;2024-03-06T03:12:05;6.17;;;5.53;;
11582;SDS011;34299;50.820;4.548;2024-03-06T03:14:33;8.53;;;5.10;;
11582;SDS011;34299;50.820;4.548;2024-03-06T03:17:00;9.33;;;5.53;;
11582;SDS011;34299;50.820;4.548;2024-03-06T03:19:27;5.83;;;4.33;;
11582;SDS011;34299;50.820;4.548;2024-03-06T03:21:54;7.03;;;4.87;;
11582;SDS011;34299;50.820;4.548;2024-03-06T03:24:21;5.47;;;4.70;;
11582;SDS011;34299;50.820;4.548;2024-03-06T03:26:50;6.67;;;4.27;;
11582;SDS011;34299;50.820;4.548;2024-03-06T03:29:19;5.80;;;4.07;;
11582;SDS011;34299;50.820;4.548;2024-03-06T03:31:46;6.50;;;4.20;;
11582;SDS011;34299;50.820;4.548;2024-03-06T03:34:13;7.03;;;4.87;;
11582;SDS011;34299;50.820;4.548;2024-03-06T03:36:40;6.13;;;4.63;;
11582;SDS011;34299;50.820;4.548;2024-03-06T03:39:07;5.40;;;4.20;;
11582;SDS011;34299;50.820;4.548;2024-03-06T03:41:42;7.60;;;4.87;;
11582;SDS011;34299;50.820;4.548;2024-03-06T03:44:11;6.77;;;4.77;;
11582;SDS011;34299;50.820;4.548;2024-03-06T03:46:39;7.63;;;4.63;;
11582;SDS011;34299;50.820;4.548;2024-03-06T03:49:06;6.03;;;5.13;;
11582;SDS011;34299;50.820;4.548;2024-03-06T03:51:33;6.67;;;4.97;;
11582;SDS011;34299;50.820;4.548;2024-03-06T03:54:00;8.97;;;4.27;;
11582;SDS011;34299;50.820;4.548;2024-03-06T03:56:27;6.20;;;4.73;;
11582;SDS011;34299;50.820;4.548;2024-03-06T03:58:55;7.37;;;4.13;;
11582;SDS011;34299;50.820;4.548;2024-03-06T04:01:22;6.33;;;4.20;;
11582;SDS011;34299;50.820;4.548;2024-03-06T04:03:51;6.20;;;4.20;;
11582;SDS011;34299;50.820;4.548;2024-03-06T04:06:18;6.90;;;4.53;;
11582;SDS011;34299;50.820;4.548;2024-03-06T04:08:45;5.23;;;4.73;;
11582;SDS011;34299;50.820;4.548;2024-03-06T04:11:12;9.67;;;4.97;;
11582;SDS011;34299;50.820;4.548;2024-03-06T04:13:39;7.57;;;5.07;;
11582;SDS011;34299;50.820;4.548;2024-03-06T04:16:05;5.30;;;4.10;;
11582;SDS011;34299;50.820;4.548;2024-03-06T04:18:33;4.67;;;3.97;;
11582;SDS011;34299;50.820;4.548;2024-03-06T04:21:03;10.70;;;5.60;;
11582;SDS011;34299;50.820;4.548;2024-03-06T04:23:31;6.47;;;5.50;;
11582;SDS011;34299;50.820;4.548;2024-03-06T04:25:58;7.33;;;4.90;;
11582;SDS011;34299;50.820;4.548;2024-03-06T04:28:25;6.13;;;4.40;;
11582;SDS011;34299;50.820;4.548;2024-03-06T04:30:52;7.33;;;5.33;;
11582;SDS011;34299;50.820;4.548;2024-03-06T04:33:19;6.87;;;4.77;;
11582;SDS011;34299;50.820;4.548;2024-03-06T04:35:46;5.67;;;4.47;;
11582;SDS011;34299;50.820;4.548;2024-03-06T04:38:14;6.83;;;4.93;;
11582;SDS011;34299;50.820;4.548;2024-03-06T04:40:41;5.97;;;4.73;;
11582;SDS011;34299;50.820;4.548;2024-03-06T04:43:08;7.97;;;4.67;;
11582;SDS011;34299;50.820;4.548;2024-03-06T04:45:35;4.10;;;3.70;;
11582;SDS011;34299;50.820;4.548;2024-03-06T04:48:02;10.73;;;4.83;;
11582;SDS011;34299;50.820;4.548;2024-03-06T04:50:29;6.90;;;4.30;;
11582;SDS011;34299;50.820;4.548;2024-03-06T04:52:56;6.67;;;4.70;;
11582;SDS011;34299;50.820;4.548;2024-03-06T04:55:24;7.50;;;4.50;;
11582;SDS011;34299;50.820;4.548;2024-03-06T04:57:52;6.07;;;3.67;;
11582;SDS011;34299;50.820;4.548;2024-03-06T05:00:19;5.73;;;4.73;;
11582;SDS011;34299;50.820;4.548;2024-03-06T05:02:46;7.03;;;3.97;;
11582;SDS011;34299;50.820;4.548;2024-03-06T05:05:14;8.03;;;4.57;;
11582;SDS011;34299;50.820;4.548;2024-03-06T05:07:41;4.43;;;3.80;;
11582;SDS011;34299;50.820;4.548;2024-03-06T05:10:08;5.33;;;3.90;;
11582;SDS011;34299;50.820;4.548;2024-03-06T05:12:37;9.27;;;4.87;;
11582;SDS011;34299;50.820;4.548;2024-03-06T05:15:04;6.47;;;4.23;;
11582;SDS011;34299;50.820;4.548;2024-03-06T05:17:32;7.13;;;4.57;;
11582;SDS011;34299;50.820;4.548;2024-03-06T05:19:59;6.63;;;4.77;;
11582;SDS011;34299;50.820;4.548;2024-03-06T05:22:26;6.33;;;4.60;;
11582;SDS011;34299;50.820;4.548;2024-03-06T05:24:53;6.30;;;4.13;;
11582;SDS011;34299;50.820;4.548;2024-03-06T05:27:20;4.87;;;3.40;;
11582;SDS011;34299;50.820;4.548;2024-03-06T05:29:48;7.17;;;3.97;;
11582;SDS011;34299;50.820;4.548;2024-03-06T05:32:15;4.03;;;3.10;;
11582;SDS011;34299;50.820;4.548;2024-03-06T05:34:42;5.17;;;3.97;;
11582;SDS011;34299;50.820;4.548;2024-03-06T05:37:09;5.53;;;4.90;;
11582;SDS011;34299;50.820;4.548;2024-03-06T05:39:36;7.67;;;4.43;;
11582;SDS011;34299;50.820;4.548;2024-03-06T05:42:04;6.90;;;5.00;;
11582;SDS011;34299;50.820;4.548;2024-03-06T05:44:31;6.37;;;4.30;;
11582;SDS011;34299;50.820;4.548;2024-03-06T05:47:00;6.70;;;5.63;;
11582;SDS011;34299;50.820;4.548;2024-03-06T05:49:28;5.50;;;3.80;;
11582;SDS011;34299;50.820;4.548;2024-03-06T05:51:55;6.73;;;4.03;;
11582;SDS011;34299;50.820;4.548;2024-03-06T05:54:22;6.93;;;3.83;;
11582;SDS011;34299;50.820;4.548;2024-03-06T05:56:50;6.07;;;4.23;;
11582;SDS011;34299;50.820;4.548;2024-03-06T05:59:18;4.50;;;3.93;;
11582;SDS011;34299;50.820;4.548;2024-03-06T06:01:45;4.73;;;3.47;;
11582;SDS011;34299;50.820;4.548;2024-03-06T06:04:14;4.80;;;3.50;;
11582;SDS011;34299;50.820;4.548;2024-03-06T06:06:41;4.73;;;3.70;;
11582;SDS011;34299;50.820;4.548;2024-03-06T06:09:08;4.67;;;4.00;;
11582;SDS011;34299;50.820;4.548;2024-03-06T06:11:40;4.77;;;4.17;;
11582;SDS011;34299;50.820;4.548;2024-03-06T06:14:08;5.70;;;4.33;;
11582;SDS011;34299;50.820;4.548;2024-03-06T06:16:35;4.77;;;3.73;;
11582;SDS011;34299;50.820;4.548;2024-03-06T06:19:03;5.87;;;4.00;;
11582;SDS011;34299;50.820;4.548;2024-03-06T06:21:32;4.67;;;4.03;;
11582;SDS011;34299;50.820;4.548;2024-03-06T06:24:01;3.67;;;3.37;;
11582;SDS011;34299;50.820;4.548;2024-03-06T06:26:28;5.70;;;3.73;;
11582;SDS011;34299;50.820;4.548;2024-03-06T06:28:55;4.03;;;3.63;;
11582;SDS011;34299;50.820;4.548;2024-03-06T06:31:23;4.83;;;4.10;;
11582;SDS011;34299;50.820;4.548;2024-03-06T06:33:51;5.47;;;3.37;;
11582;SDS011;34299;50.820;4.548;2024-03-06T06:36:18;3.87;;;3.47;;
11582;SDS011;34299;50.820;4.548;2024-03-06T06:38:46;5.10;;;3.43;;
11582;SDS011;34299;50.820;4.548;2024-03-06T06:41:13;5.07;;;3.60;;
11582;SDS011;34299;50.820;4.548;2024-03-06T06:43:40;4.10;;;3.27;;
11582;SDS011;34299;50.820;4.548;2024-03-06T06:46:07;6.00;;;3.90;;
11582;SDS011;34299;50.820;4.548;2024-03-06T06:48:34;4.23;;;3.77;;
11582;SDS011;34299;50.820;4.548;2024-03-06T06:51:01;4.03;;;3.37;;
11582;SDS011;34299;50.820;4.548;2024-03-06T06:53:28;6.80;;;3.73;;
11582;SDS011;34299;50.820;4.548;2024-03-06T06:55:57;5.47;;;4.40;;
11582;SDS011;34299;50.820;4.548;2024-03-06T06:58:24;5.67;;;3.77;;
11582;SDS011;34299;50.820;4.548;2024-03-06T07:00:52;4.80;;;3.17;;
11582;SDS011;34299;50.820;4.548;2024-03-06T07:03:19;4.50;;;4.00;;
11582;SDS011;34299;50.820;4.548;2024-03-06T07:05:48;4.83;;;4.30;;
11582;SDS011;34299;50.820;4.548;2024-03-06T07:08:15;5.73;;;4.20;;
11582;SDS011;34299;50.820;4.548;2024-03-06T07:10:42;5.17;;;3.83;;
11582;SDS011;34299;50.820;4.548;2024-03-06T07:13:10;6.33;;;3.83;;
11582;SDS011;34299;50.820;4.548;2024-03-06T07:15:37;6.03;;;5.10;;
11582;SDS011;34299;50.820;4.548;2024-03-06T07:18:04;5.37;;;3.60;;
11582;SDS011;34299;50.820;4.548;2024-03-06T07:20:31;4.77;;;3.83;;
11582;SDS011;34299;50.820;4.548;2024-03-06T07:22:58;5.37;;;3.47;;
11582;SDS011;34299;50.820;4.548;2024-03-06T07:25:25;5.90;;;4.43;;
11582;SDS011;34299;50.820;4.548;2024-03-06T07:27:52;6.87;;;3.73;;
11582;SDS011;34299;50.820;4.548;2024-03-06T07:30:20;3.90;;;3.50;;
11582;SDS011;34299;50.820;4.548;2024-03-06T07:32:48;6.93;;;4.40;;
11582;SDS011;34299;50.820;4.548;2024-03-06T07:35:15;6.47;;;4.27;;
11582;SDS011;34299;50.820;4.548;2024-03-06T07:37:42;6.37;;;4.00;;
11582;SDS011;34299;50.820;4.548;2024-03-06T07:40:10;7.77;;;4.53;;
11582;SDS011;34299;50.820;4.548;2024-03-06T07:42:37;7.00;;;4.23;;
11582;SDS011;34299;50.820;4.548;2024-03-06T07:45:04;8.67;;;4.77;;
11582;SDS011;34299;50.820;4.548;2024-03-06T07:47:35;7.23;;;4.37;;
11582;SDS011;34299;50.820;4.548;2024-03-06T07:50:04;8.63;;;4.70;;
11582;SDS011;34299;50.820;4.548;2024-03-06T07:52:33;7.07;;;4.63;;
11582;SDS011;34299;50.820;4.548;2024-03-06T07:55:01;6.60;;;4.93;;
11582;SDS011;34299;50.820;4.548;2024-03-06T07:57:28;8.63;;;5.37;;
11582;SDS011;34299;50.820;4.548;2024-03-06T07:59:54;7.13;;;4.57;;
11582;SDS011;34299;50.820;4.548;2024-03-06T08:02:21;7.97;;;5.30;;
11582;SDS011;34299;50.820;4.548;2024-03-06T08:04:50;7.80;;;5.47;;
11582;SDS011;34299;50.820;4.548;2024-03-06T08:07:17;6.87;;;4.73;;
11582;SDS011;34299;50.820;4.548;2024-03-06T08:09:44;10.23;;;5.87;;
11582;SDS011;34299;50.820;4.548;2024-03-06T08:12:10;7.73;;;5.00;;
11582;SDS011;34299;50.820;4.548;2024-03-06T08:14:37;6.33;;;5.13;;
11582;SDS011;34299;50.820;4.548;2024-03-06T08:17:04;7.27;;;4.83;;
11582;SDS011;34299;50.820;4.548;2024-03-06T08:19:31;6.80;;;5.10;;
11582;SDS011;34299;50.820;4.548;2024-03-06T08:21:59;9.37;;;5.47;;
11582;SDS011;34299;50.820;4.548;2024-03-06T08:24:27;9.23;;;5.27;;
11582;SDS011;34299;50.820;4.548;2024-03-06T08:26:54;12.10;;;5.30;;
11582;SDS011;34299;50.820;4.548;2024-03-06T08:29:22;7.60;;;4.83;;
11582;SDS011;34299;50.820;4.548;2024-03-06T08:31:49;9.33;;;5.10;;
11582;SDS011;34299;50.820;4.548;2024-03-06T08:34:15;9.70;;;5.33;;
11582;SDS011;34299;50.820;4.548;2024-03-06T08:36:42;8.47;;;5.10;;
11582;SDS011;34299;50.820;4.548;2024-03-06T08:39:11;10.57;;;5.40;;
11582;SDS011;34299;50.820;4.548;2024-03-06T08:41:41;11.03;;;6.10;;
11582;SDS011;34299;50.820;4.548;2024-03-06T08:44:08;8.40;;;5.03;;
11582;SDS011;34299;50.820;4.548;2024-03-06T08:46:35;10.33;;;5.17;;
11582;SDS011;34299;50.820;4.548;2024-03-06T08:49:02;6.50;;;4.53;;
11582;SDS011;34299;50.820;4.548;2024-03-06T08:51:29;7.40;;;5.07;;
11582;SDS011;34299;50.820;4.548;2024-03-06T08:53:56;10.23;;;6.33;;
11582;SDS011;34299;50.820;4.548;2024-03-06T08:56:24;8.90;;;5.30;;
11582;SDS011;34299;50.820;4.548;2024-03-06T08:58:52;9.50;;;6.07;;
11582;SDS011;34299;50.820;4.548;2024-03-06T09:01:19;9.37;;;5.40;;
11582;SDS011;34299;50.820;4.548;2024-03-06T09:03:46;7.27;;;4.67;;
11582;SDS011;34299;50.820;4.548;2024-03-06T09:06:13;8.47;;;5.40;;
11582;SDS011;34299;50.820;4.548;2024-03-06T09:08:40;7.10;;;4.73;;
11582;SDS011;34299;50.820;4.548;2024-03-06T09:11:07;8.87;;;6.07;;
11582;SDS011;34299;50.820;4.548;2024-03-06T09:13:35;9.43;;;5.40;;
11582;SDS011;34299;50.820;4.548;2024-03-06T09:16:02;10.00;;;4.90;;
11582;SDS011;34299;50.820;4.548;2024-03-06T09:18:29;11.20;;;5.13;;
11582;SDS011;34299;50.820;4.548;2024-03-06T09:20:57;7.17;;;4.90;;
11582;SDS011;34299;50.820;4.548;2024-03-06T09:23:24;12.93;;;5.60;;
11582;SDS011;34299;50.820;4.548;2024-03-06T09:25:51;5.20;;;4.70;;
11582;SDS011;34299;50.820;4.548;2024-03-06T09:28:19;8.80;;;4.60;;
11582;SDS011;34299;50.820;4.548;2024-03-06T09:30:47;9.97;;;5.00;;
11582;SDS011;34299;50.820;4.548;2024-03-06T09:33:14;5.97;;;4.43;;
11582;SDS011;34299;50.820;4.548;2024-03-06T09:35:41;6.90;;;4.40;;
11582;SDS011;34299;50.820;4.548;2024-03-06T09:38:10;6.47;;;4.37;;
11582;SDS011;34299;50.820;4.548;2024-03-06T09:40:38;8.50;;;4.63;;
11582;SDS011;34299;50.820;4.548;2024-03-06T09:43:06;8.37;;;4.27;;
11582;SDS011;34299;50.820;4.548;2024-03-06T09:45:33;6.17;;;3.90;;
11582;SDS011;34299;50.820;4.548;2024-03-06T09:48:03;7.73;;;4.77;;
11582;SDS011;34299;50.820;4.548;2024-03-06T09:50:31;5.20;;;4.10;;
11582;SDS011;34299;50.820;4.548;2024-03-06T09:53:06;9.17;;;3.83;;
11582;SDS011;34299;50.820;4.548;2024-03-06T09:55:36;7.57;;;4.10;;
11582;SDS011;34299;50.820;4.548;2024-03-06T09:58:05;7.17;;;3.87;;
11582;SDS011;34299;50.820;4.548;2024-03-06T10:00:33;5.70;;;4.33;;
11582;SDS011;34299;50.820;4.548;2024-03-06T10:03:01;6.07;;;4.07;;
11582;SDS011;34299;50.820;4.548;2024-03-06T10:05:33;5.97;;;3.57;;
11582;SDS011;34299;50.820;4.548;2024-03-06T10:08:00;5.83;;;3.33;;
11582;SDS011;34299;50.820;4.548;2024-03-06T10:10:29;4.90;;;3.43;;
11582;SDS011;34299;50.820;4.548;2024-03-06T10:12:56;5.37;;;3.23;;
11582;SDS011;34299;50.820;4.548;2024-03-06T10:15:25;5.70;;;3.80;;
11582;SDS011;34299;50.820;4.548;2024-03-06T10:20:43;4.77;;;3.03;;
11582;SDS011;34299;50.820;4.548;2024-03-06T10:23:10;5.03;;;3.13;;
11582;SDS011;34299;50.820;4.548;2024-03-06T10:25:37;3.93;;;2.77;;
11582;SDS011;34299;50.820;4.548;2024-03-06T10:28:05;5.60;;;3.40;;
11582;SDS011;34299;50.820;4.548;2024-03-06T10:30:33;4.70;;;3.07;;
11582;SDS011;34299;50.820;4.548;2024-03-06T10:33:01;4.70;;;2.87;;
11582;SDS011;34299;50.820;4.548;2024-03-06T10:35:30;6.63;;;3.43;;
11582;SDS011;34299;50.820;4.548;2024-03-06T10:37:57;4.80;;;3.03;;
11582;SDS011;34299;50.820;4.548;2024-03-06T10:40:26;3.43;;;2.83;;
11582;SDS011;34299;50.820;4.548;2024-03-06T10:42:54;2.97;;;2.67;;
11582;SDS011;34299;50.820;4.548;2024-03-06T10:45:23;3.83;;;2.73;;
11582;SDS011;34299;50.820;4.548;2024-03-06T10:48:00;7.43;;;2.83;;
11582;SDS011;34299;50.820;4.548;2024-03-06T10:50:29;3.97;;;2.70;;
11582;SDS011;34299;50.820;4.548;2024-03-06T10:52:57;5.40;;;2.80;;
11582;SDS011;34299;50.820;4.548;2024-03-06T10:55:25;6.37;;;2.90;;
11582;SDS011;34299;50.820;4.548;2024-03-06T10:57:59;3.53;;;2.20;;
11582;SDS011;34299;50.820;4.548;2024-03-06T11:00:26;3.13;;;2.10;;
11582;SDS011;34299;50.820;4.548;2024-03-06T11:02:54;3.37;;;2.13;;
11582;SDS011;34299;50.820;4.548;2024-03-06T11:05:23;4.80;;;2.30;;
11582;SDS011;34299;50.820;4.548;2024-03-06T11:07:52;3.30;;;2.30;;
11582;SDS011;34299;50.820;4.548;2024-03-06T11:10:29;3.20;;;2.37;;
11582;SDS011;34299;50.820;4.548;2024-03-06T11:12:57;6.97;;;2.13;;
11582;SDS011;34299;50.820;4.548;2024-03-06T11:15:24;3.20;;;2.17;;
11582;SDS011;34299;50.820;4.548;2024-03-06T11:17:51;5.03;;;1.90;;
11582;SDS011;34299;50.820;4.548;2024-03-06T11:20:20;3.03;;;1.80;;
11582;SDS011;34299;50.820;4.548;2024-03-06T11:23:08;3.20;;;2.07;;
11582;SDS011;34299;50.820;4.548;2024-03-06T11:28:30;3.77;;;2.20;;
11582;SDS011;34299;50.820;4.548;2024-03-06T11:30:58;2.73;;;2.43;;
11582;SDS011;34299;50.820;4.548;2024-03-06T11:33:36;2.83;;;2.10;;
11582;SDS011;34299;50.820;4.548;2024-03-06T11:36:16;3.40;;;2.00;;
11582;SDS011;34299;50.820;4.548;2024-03-06T11:38:53;3.80;;;1.80;;
11582;SDS011;34299;50.820;4.548;2024-03-06T11:41:23;2.73;;;2.13;;
11582;SDS011;34299;50.820;4.548;2024-03-06T11:43:51;4.23;;;2.40;;
11582;SDS011;34299;50.820;4.548;2024-03-06T11:46:20;3.10;;;2.10;;
11582;SDS011;34299;50.820;4.548;2024-03-06T11:48:51;4.47;;;2.10;;
11582;SDS011;34299;50.820;4.548;2024-03-06T11:51:20;4.23;;;2.20;;
11582;SDS011;34299;50.820;4.548;2024-03-06T11:53:50;5.10;;;1.93;;
11582;SDS011;34299;50.820;4.548;2024-03-06T11:56:20;3.73;;;1.73;;
11582;SDS011;34299;50.820;4.548;2024-03-06T11:58:47;3.67;;;1.67;;
11582;SDS011;34299;50.820;4.548;2024-03-06T12:01:14;3.53;;;2.00;;
11582;SDS011;34299;50.820;4.548;2024-03-06T12:03:41;3.50;;;1.83;;
11582;SDS011;34299;50.820;4.548;2024-03-06T12:06:09;4.53;;;2.07;;
11582;SDS011;34299;50.820;4.548;2024-03-06T12:08:38;2.93;;;1.77;;
11582;SDS011;34299;50.820;4.548;2024-03-06T12:11:07;3.87;;;2.00;;
11582;SDS011;34299;50.820;4.548;2024-03-06T12:13:34;4.00;;;1.80;;
11582;SDS011;34299;50.820;4.548;2024-03-06T12:16:04;1.93;;;1.70;;
11582;SDS011;34299;50.820;4.548;2024-03-06T12:18:32;2.57;;;1.90;;
11582;SDS011;34299;50.820;4.548;2024-03-06T12:21:00;4.37;;;2.00;;
11582;SDS011;34299;50.820;4.548;2024-03-06T12:23:28;2.90;;;2.13;;
11582;SDS011;34299;50.820;4.548;2024-03-06T12:26:05;2.57;;;2.30;;
11582;SDS011;34299;50.820;4.548;2024-03-06T12:28:35;4.17;;;2.20;;
11582;SDS011;34299;50.820;4.548;2024-03-06T12:31:02;5.40;;;2.13;;
11582;SDS011;34299;50.820;4.548;2024-03-06T12:33:30;4.47;;;2.57;;
11582;SDS011;34299;50.820;4.548;2024-03-06T12:36:04;4.97;;;2.20;;
11582;SDS011;34299;50.820;4.548;2024-03-06T12:38:35;3.27;;;2.40;;
11582;SDS011;34299;50.820;4.548;2024-03-06T12:41:02;3.90;;;2.57;;
11582;SDS011;34299;50.820;4.548;2024-03-06T12:43:32;3.27;;;2.20;;
11582;SDS011;34299;50.820;4.548;2024-03-06T12:45:59;2.43;;;2.00;;
11582;SDS011;34299;50.820;4.548;2024-03-06T12:48:27;5.27;;;1.93;;
11582;SDS011;34299;50.820;4.548;2024-03-06T12:50:55;5.30;;;2.27;;
11582;SDS011;34299;50.820;4.548;2024-03-06T12:53:29;3.43;;;1.90;;
11582;SDS011;34299;50.820;4.548;2024-03-06T12:55:57;5.57;;;2.23;;
11582;SDS011;34299;50.820;4.548;2024-03-06T12:58:23;3.30;;;2.00;;
11582;SDS011;34299;50.820;4.548;2024-03-06T13:00:52;3.70;;;2.17;;
11582;SDS011;34299;50.820;4.548;2024-03-06T13:03:19;3.53;;;1.83;;
11582;SDS011;34299;50.820;4.548;2024-03-06T13:05:46;4.23;;;2.00;;
11582;SDS011;34299;50.820;4.548;2024-03-06T13:08:13;1.80;;;1.60;;
11582;SDS011;34299;50.820;4.548;2024-03-06T13:10:40;2.43;;;1.70;;
11582;SDS011;34299;50.820;4.548;2024-03-06T13:13:07;2.77;;;1.60;;
11582;SDS011;34299;50.820;4.548;2024-03-06T13:15:34;1.93;;;1.63;;
11582;SDS011;34299;50.820;4.548;2024-03-06T13:18:04;3.60;;;2.03;;
11582;SDS011;34299;50.820;4.548;2024-03-06T13:20:31;3.50;;;2.10;;
11582;SDS011;34299;50.820;4.548;2024-03-06T13:22:58;4.80;;;2.20;;
11582;SDS011;34299;50.820;4.548;2024-03-06T13:25:26;3.73;;;1.80;;
11582;SDS011;34299;50.820;4.548;2024-03-06T13:27:54;2.80;;;1.93;;
11582;SDS011;34299;50.820;4.548;2024-03-06T13:30:20;4.37;;;2.53;;
11582;SDS011;34299;50.820;4.548;2024-03-06T13:32:48;3.57;;;1.77;;
11582;SDS011;34299;50.820;4.548;2024-03-06T13:35:16;2.30;;;1.60;;
11582;SDS011;34299;50.820;4.548;2024-03-06T13:37:43;3.50;;;1.77;;
11582;SDS011;34299;50.820;4.548;2024-03-06T13:40:10;1.73;;;1.30;;
11582;SDS011;34299;50.820;4.548;2024-03-06T13:42:38;3.23;;;1.60;;
11582;SDS011;34299;50.820;4.548;2024-03-06T13:45:06;2.50;;;1.53;;
11582;SDS011;34299;50.820;4.548;2024-03-06T13:47:36;2.90;;;1.60;;
11582;SDS011;34299;50.820;4.548;2024-03-06T13:50:05;2.27;;;1.73;;
11582;SDS011;34299;50.820;4.548;2024-03-06T13:52:36;3.33;;;1.77;;
11582;SDS011;34299;50.820;4.548;2024-03-06T13:55:03;3.33;;;1.63;;
11582;SDS011;34299;50.820;4.548;2024-03-06T13:57:31;3.00;;;2.07;;
11582;SDS011;34299;50.820;4.548;2024-03-06T13:59:59;2.10;;;1.50;;
11582;SDS011;34299;50.820;4.548;2024-03-06T14:02:27;2.33;;;1.93;;
11582;SDS011;34299;50.820;4.548;2024-03-06T14:04:54;3.13;;;2.10;;
11582;SDS011;34299;50.820;4.548;2024-03-06T14:07:21;3.57;;;2.73;;
11582;SDS011;34299;50.820;4.548;2024-03-06T14:09:49;2.23;;;1.50;;
11582;SDS011;34299;50.820;4.548;2024-03-06T14:12:17;2.03;;;1.50;;
11582;SDS011;34299;50.820;4.548;2024-03-06T14:14:44;3.23;;;1.43;;
11582;SDS011;34299;50.820;4.548;2024-03-06T14:17:11;3.13;;;2.27;;
11582;SDS011;34299;50.820;4.548;2024-03-06T14:19:38;2.13;;;1.70;;
11582;SDS011;34299;50.820;4.548;2024-03-06T14:22:05;3.63;;;1.87;;
11582;SDS011;34299;50.820;4.548;2024-03-06T14:24:32;4.00;;;1.50;;
11582;SDS011;34299;50.820;4.548;2024-03-06T14:27:01;2.60;;;1.47;;
11582;SDS011;34299;50.820;4.548;2024-03-06T14:29:27;2.67;;;1.50;;
11582;SDS011;34299;50.820;4.548;2024-03-06T14:31:54;3.53;;;1.77;;
11582;SDS011;34299;50.820;4.548;2024-03-06T14:34:21;2.83;;;1.53;;
11582;SDS011;34299;50.820;4.548;2024-03-06T14:36:49;4.90;;;1.47;;
11582;SDS011;34299;50.820;4.548;2024-03-06T14:39:16;1.80;;;1.10;;
11582;SDS011;34299;50.820;4.548;2024-03-06T14:41:43;1.10;;;0.93;;
11582;SDS011;34299;50.820;4.548;2024-03-06T14:44:13;3.67;;;1.63;;
11582;SDS011;34299;50.820;4.548;2024-03-06T14:46:40;1.70;;;1.47;;
11582;SDS011;34299;50.820;4.548;2024-03-06T14:49:07;4.80;;;1.63;;
11582;SDS011;34299;50.820;4.548;2024-03-06T14:51:35;4.07;;;1.87;;
11582;SDS011;34299;50.820;4.548;2024-03-06T14:54:02;2.13;;;1.80;;
11582;SDS011;34299;50.820;4.548;2024-03-06T14:56:30;1.47;;;1.37;;